createdAt,value
2018-10-07T00:00:44.646Z,15.69
2018-10-07T00:03:13.789Z,15.72
2018-10-07T00:05:42.900Z,15.65
2018-10-07T00:08:12.012Z,15.65
2018-10-07T00:10:41.117Z,15.62
2018-10-07T00:13:10.227Z,15.59
2018-10-07T00:15:39.304Z,15.55
2018-10-07T00:18:08.428Z,15.60
2018-10-07T00:20:37.510Z,15.62
2018-10-07T00:23:07.110Z,15.68
2018-10-07T00:25:36.224Z,15.62
2018-10-07T00:28:06.052Z,15.55
2018-10-07T00:30:35.148Z,15.52
2018-10-07T00:33:04.286Z,15.55
2018-10-07T00:35:33.388Z,15.44
2018-10-07T00:38:02.524Z,15.44
2018-10-07T00:40:31.608Z,15.47
2018-10-07T00:43:00.728Z,15.54
2018-10-07T00:45:29.949Z,15.57
2018-10-07T00:47:59.093Z,15.42
2018-10-07T00:50:28.212Z,15.41
2018-10-07T00:52:57.325Z,15.29
2018-10-07T00:55:26.417Z,15.19
2018-10-07T00:57:55.577Z,15.17
2018-10-07T01:00:24.679Z,15.17
2018-10-07T01:02:53.801Z,15.24
2018-10-07T01:05:22.909Z,15.22
2018-10-07T01:07:52.152Z,15.22
2018-10-07T01:10:21.264Z,15.27
2018-10-07T01:12:50.437Z,15.32
2018-10-07T01:15:19.524Z,15.29
2018-10-07T01:17:48.650Z,15.28
2018-10-07T01:20:17.746Z,15.18
2018-10-07T01:22:46.880Z,15.26
2018-10-07T01:25:15.973Z,15.34
2018-10-07T01:27:45.212Z,15.40
2018-10-07T01:30:14.373Z,15.32
2018-10-07T01:32:43.482Z,15.15
2018-10-07T01:35:12.633Z,15.08
2018-10-07T01:37:41.745Z,15.01
2018-10-07T01:40:10.925Z,15.01
2018-10-07T01:42:40.223Z,15.02
2018-10-07T01:45:09.341Z,15.01
2018-10-07T01:47:38.465Z,15.05
2018-10-07T01:50:07.877Z,15.06
2018-10-07T01:52:37.149Z,15.02
2018-10-07T01:55:06.320Z,15.10
2018-10-07T01:57:35.428Z,15.13
2018-10-07T02:00:04.653Z,15.13
2018-10-07T02:02:33.839Z,15.10
2018-10-07T02:05:03.000Z,15.08
2018-10-07T02:07:32.425Z,15.11
2018-10-07T02:10:01.509Z,15.10
2018-10-07T02:12:30.621Z,15.06
2018-10-07T02:14:59.805Z,15.04
2018-10-07T02:17:28.930Z,15.15
2018-10-07T02:19:58.084Z,15.13
2018-10-07T02:22:27.197Z,15.02
2018-10-07T02:24:56.384Z,15.06
2018-10-07T02:27:25.528Z,15.01
2018-10-07T02:29:54.686Z,15.00
2018-10-07T02:32:23.816Z,14.96
2018-10-07T02:34:52.982Z,14.89
2018-10-07T02:37:22.104Z,14.95
2018-10-07T02:39:51.255Z,15.01
2018-10-07T02:42:20.463Z,14.93
2018-10-07T02:44:49.593Z,14.90
2018-10-07T02:47:18.727Z,14.91
2018-10-07T02:49:47.883Z,14.91
2018-10-07T02:52:21.171Z,14.86
2018-10-07T02:54:50.364Z,14.89
2018-10-07T02:57:19.512Z,14.89
2018-10-07T02:59:49.200Z,14.85
2018-10-07T03:02:18.308Z,14.84
2018-10-07T03:04:47.508Z,14.75
2018-10-07T03:07:16.606Z,14.75
2018-10-07T03:09:45.728Z,14.74
2018-10-07T03:12:14.846Z,14.73
2018-10-07T03:14:44.148Z,14.73
2018-10-07T03:17:13.237Z,14.76
2018-10-07T03:19:42.408Z,14.81
2018-10-07T03:22:11.512Z,14.70
2018-10-07T03:24:40.611Z,14.82
2018-10-07T03:27:09.719Z,14.81
2018-10-07T03:29:38.857Z,14.76
2018-10-07T03:32:08.010Z,14.70
2018-10-07T03:34:37.126Z,14.76
2018-10-07T03:37:06.400Z,14.77
2018-10-07T03:39:35.507Z,14.69
2018-10-07T03:42:04.720Z,14.69
2018-10-07T03:44:33.915Z,14.69
2018-10-07T03:47:03.027Z,14.75
2018-10-07T03:49:32.178Z,14.85
2018-10-07T03:52:01.322Z,14.84
2018-10-07T03:54:30.457Z,14.81
2018-10-07T03:56:59.579Z,14.68
2018-10-07T03:59:28.880Z,14.63
2018-10-07T04:01:58.311Z,14.63
2018-10-07T04:04:27.667Z,14.62
2018-10-07T04:06:56.831Z,14.66
2018-10-07T04:09:25.974Z,14.65
2018-10-07T04:11:55.077Z,14.66
2018-10-07T04:14:24.243Z,14.59
2018-10-07T04:16:53.377Z,14.68
2018-10-07T04:19:22.537Z,14.66
2018-10-07T04:21:54.497Z,14.59
2018-10-07T04:24:24.639Z,14.53
2018-10-07T04:26:53.891Z,14.49
2018-10-07T04:29:23.014Z,14.40
2018-10-07T04:31:52.167Z,14.47
2018-10-07T04:34:21.311Z,14.54
2018-10-07T04:36:50.438Z,14.52
2018-10-07T04:39:19.621Z,14.53
2018-10-07T04:41:48.729Z,14.59
2018-10-07T04:44:17.893Z,14.57
2018-10-07T04:46:47.013Z,14.63
2018-10-07T04:49:16.151Z,14.60
2018-10-07T04:51:45.260Z,14.60
2018-10-07T04:54:14.384Z,14.53
2018-10-07T04:56:43.488Z,14.53
2018-10-07T04:59:12.680Z,14.49
2018-10-07T05:01:41.900Z,14.45
2018-10-07T05:04:11.004Z,14.47
2018-10-07T05:06:40.135Z,14.52
2018-10-07T05:09:11.306Z,14.47
2018-10-07T05:11:41.708Z,14.38
2018-10-07T05:14:11.592Z,14.41
2018-10-07T05:16:46.345Z,14.41
2018-10-07T05:19:15.487Z,14.42
2018-10-07T05:21:44.640Z,14.53
2018-10-07T05:24:13.728Z,14.58
2018-10-07T05:26:42.857Z,14.59
2018-10-07T05:29:11.970Z,14.45
2018-10-07T05:31:41.205Z,14.42
2018-10-07T05:34:10.588Z,14.42
2018-10-07T05:36:39.690Z,14.39
2018-10-07T05:39:10.184Z,14.44
2018-10-07T05:41:39.304Z,14.41
2018-10-07T05:44:08.521Z,14.31
2018-10-07T05:46:37.633Z,14.35
2018-10-07T05:49:06.723Z,14.32
2018-10-07T05:51:35.829Z,14.42
2018-10-07T05:54:04.989Z,14.52
2018-10-07T05:56:34.103Z,14.64
2018-10-07T05:59:04.287Z,14.70
2018-10-07T06:01:36.998Z,14.73
2018-10-07T06:04:14.501Z,14.76
2018-10-07T06:06:43.608Z,14.71
2018-10-07T06:09:18.847Z,14.71
2018-10-07T06:11:48.230Z,14.72
2018-10-07T06:14:28.879Z,14.74
2018-10-07T06:16:58.017Z,14.91
2018-10-07T06:19:27.233Z,14.98
2018-10-07T06:21:56.389Z,14.85
2018-10-07T06:24:25.653Z,14.82
2018-10-07T06:26:55.247Z,14.80
2018-10-07T06:29:25.280Z,14.75
2018-10-07T06:31:54.702Z,14.79
2018-10-07T06:34:24.067Z,14.82
2018-10-07T06:36:53.528Z,14.87
2018-10-07T06:39:23.388Z,14.96
2018-10-07T06:41:52.848Z,15.08
2018-10-07T06:44:22.496Z,15.21
2018-10-07T06:46:51.690Z,15.34
2018-10-07T06:49:21.144Z,15.39
2018-10-07T06:51:50.512Z,15.38
2018-10-07T06:54:19.734Z,15.42
2018-10-07T06:56:49.240Z,15.49
2018-10-07T06:59:18.356Z,15.44
2018-10-07T07:01:47.489Z,15.51
2018-10-07T07:04:16.834Z,15.49
2018-10-07T07:06:45.962Z,15.65
2018-10-07T07:09:15.148Z,15.70
2018-10-07T07:11:44.257Z,15.70
2018-10-07T07:14:13.428Z,15.67
2018-10-07T07:16:43.438Z,15.68
2018-10-07T07:19:12.652Z,15.68
2018-10-07T07:21:41.747Z,15.74
2018-10-07T07:24:10.929Z,15.67
2018-10-07T07:26:40.037Z,15.69
2018-10-07T07:29:09.126Z,15.69
2018-10-07T07:31:38.260Z,15.86
2018-10-07T07:34:07.632Z,15.91
2018-10-07T07:36:36.806Z,15.94
2018-10-07T07:39:06.780Z,15.98
2018-10-07T07:41:35.899Z,16.15
2018-10-07T07:44:05.041Z,16.16
2018-10-07T07:46:34.279Z,16.18
2018-10-07T07:49:03.433Z,16.40
2018-10-07T07:51:32.543Z,16.48
2018-10-07T07:54:01.736Z,16.44
2018-10-07T07:56:30.935Z,16.51
2018-10-07T07:59:00.162Z,16.55
2018-10-07T08:01:29.399Z,16.60
2018-10-07T08:03:58.609Z,16.69
2018-10-07T08:06:27.727Z,16.82
2018-10-07T08:08:57.001Z,16.85
2018-10-07T08:11:26.099Z,16.95
2018-10-07T08:13:55.265Z,16.99
2018-10-07T08:16:24.411Z,17.03
2018-10-07T08:18:53.605Z,17.04
2018-10-07T08:21:22.683Z,17.23
2018-10-07T08:23:51.821Z,17.14
2018-10-07T08:26:20.988Z,17.08
2018-10-07T08:28:50.112Z,17.11
2018-10-07T08:31:19.423Z,17.10
2018-10-07T08:33:48.514Z,17.10
2018-10-07T08:36:17.638Z,17.02
2018-10-07T08:38:46.920Z,17.14
2018-10-07T08:41:16.093Z,17.08
2018-10-07T08:43:45.350Z,17.03
2018-10-07T08:46:14.484Z,16.98
2018-10-07T08:48:43.563Z,17.06
2018-10-07T08:51:12.660Z,17.06
2018-10-07T08:53:42.578Z,17.06
2018-10-07T08:56:11.736Z,17.00
2018-10-07T08:58:40.948Z,17.04
2018-10-07T09:01:10.073Z,17.16
2018-10-07T09:03:39.238Z,17.15
2018-10-07T09:06:11.196Z,17.19
2018-10-07T09:08:40.356Z,17.19
2018-10-07T09:11:09.434Z,17.38
2018-10-07T09:13:38.604Z,17.48
2018-10-07T09:16:07.786Z,17.45
2018-10-07T09:18:36.880Z,17.53
2018-10-07T09:21:06.158Z,17.70
2018-10-07T09:23:35.196Z,17.82
2018-10-07T09:26:04.430Z,17.81
2018-10-07T09:28:33.591Z,17.79
2018-10-07T09:31:02.688Z,17.93
2018-10-07T09:33:32.199Z,18.01
2018-10-07T09:36:01.271Z,18.12
2018-10-07T09:38:30.483Z,18.22
2018-10-07T09:40:59.595Z,18.00
2018-10-07T09:43:28.757Z,18.02
2018-10-07T09:45:57.893Z,17.96
2018-10-07T09:48:27.021Z,18.06
2018-10-07T09:50:56.141Z,18.06
2018-10-07T09:53:25.267Z,18.10
2018-10-07T09:55:54.447Z,18.14
2018-10-07T09:58:23.565Z,18.38
2018-10-07T10:00:52.761Z,18.36
2018-10-07T10:03:21.854Z,18.33
2018-10-07T10:05:51.039Z,18.38
2018-10-07T10:08:20.160Z,18.46
2018-10-07T10:10:49.236Z,18.33
2018-10-07T10:13:18.512Z,18.41
2018-10-07T10:15:47.624Z,18.37
2018-10-07T10:18:23.715Z,18.63
2018-10-07T10:21:00.093Z,18.51
2018-10-07T10:23:44.913Z,18.41
2018-10-07T10:26:20.809Z,18.61
2018-10-07T10:29:14.745Z,18.76
2018-10-07T10:32:54.613Z,19.12
2018-10-07T10:35:38.348Z,18.93
2018-10-07T10:38:17.848Z,19.28
2018-10-07T10:41:04.743Z,19.56
2018-10-07T10:43:42.833Z,19.65
2018-10-07T10:46:16.399Z,19.44
2018-10-07T10:48:57.673Z,19.34
2018-10-07T10:52:06.283Z,19.37
2018-10-07T10:54:45.846Z,19.49
2018-10-07T10:57:25.590Z,19.54
2018-10-07T11:00:12.435Z,19.95
2018-10-07T11:02:52.872Z,19.98
2018-10-07T11:05:40.245Z,19.91
2018-10-07T11:08:21.666Z,19.64
2018-10-07T11:11:26.993Z,19.59
2018-10-07T11:14:02.413Z,19.67
2018-10-07T11:17:48.830Z,19.95
2018-10-07T11:20:24.491Z,20.17
2018-10-07T11:24:00.943Z,20.51
2018-10-07T11:26:56.278Z,20.47
2018-10-07T11:29:37.542Z,20.75
2018-10-07T11:32:12.343Z,20.49
2018-10-07T11:34:47.413Z,20.46
2018-10-07T11:39:42.794Z,21.01
2018-10-07T11:42:18.689Z,21.49
2018-10-07T11:44:56.678Z,20.85
2018-10-07T11:48:05.018Z,20.94
2018-10-07T11:51:07.976Z,21.17
2018-10-07T11:53:40.429Z,21.64
2018-10-07T11:56:09.595Z,21.17
2018-10-07T11:58:38.935Z,21.67
2018-10-07T12:01:08.063Z,21.54
2018-10-07T12:03:37.482Z,21.63
2018-10-07T12:06:06.588Z,22.56
2018-10-07T12:08:35.802Z,22.48
2018-10-07T12:11:04.976Z,22.04
2018-10-07T12:13:34.075Z,21.90
2018-10-07T12:16:03.324Z,21.88
2018-10-07T12:18:32.395Z,21.11
2018-10-07T12:21:01.468Z,21.47
2018-10-07T12:23:30.852Z,21.02
2018-10-07T12:25:59.984Z,20.77
2018-10-07T12:28:29.088Z,21.11
2018-10-07T12:30:58.459Z,21.18
2018-10-07T12:33:27.581Z,21.60
2018-10-07T12:35:56.693Z,21.15
2018-10-07T12:38:25.823Z,21.17
2018-10-07T12:40:54.961Z,21.23
2018-10-07T12:43:24.046Z,21.22
2018-10-07T12:45:53.149Z,20.98
2018-10-07T12:48:22.254Z,20.93
2018-10-07T12:50:51.384Z,21.17
2018-10-07T12:53:20.524Z,21.08
2018-10-07T12:55:49.609Z,21.52
2018-10-07T12:58:18.733Z,21.49
2018-10-07T13:00:47.866Z,21.66
2018-10-07T13:03:16.968Z,21.60
2018-10-07T13:05:46.051Z,22.07
2018-10-07T13:08:15.150Z,22.60
2018-10-07T13:10:44.251Z,22.61
2018-10-07T13:13:13.468Z,22.87
2018-10-07T13:15:42.554Z,23.31
2018-10-07T13:18:11.621Z,22.88
2018-10-07T13:20:40.718Z,23.20
2018-10-07T13:23:10.068Z,23.48
2018-10-07T13:25:39.174Z,25.12
2018-10-07T13:28:08.255Z,25.83
2018-10-07T13:30:37.384Z,24.77
2018-10-07T13:33:06.630Z,27.95
2018-10-07T13:35:35.729Z,28.31
2018-10-07T13:38:04.818Z,29.13
2018-10-07T13:40:33.959Z,30.26
2018-10-07T13:43:03.063Z,29.42
2018-10-07T13:45:32.252Z,27.00
2018-10-07T13:48:01.363Z,25.39
2018-10-07T13:50:30.455Z,25.08
2018-10-07T13:52:59.573Z,23.93
2018-10-07T13:55:28.643Z,23.19
2018-10-07T13:57:57.715Z,23.03
2018-10-07T14:00:26.818Z,21.94
2018-10-07T14:02:55.892Z,22.08
2018-10-07T14:05:24.987Z,21.92
2018-10-07T14:07:54.085Z,21.19
2018-10-07T14:10:23.298Z,21.56
2018-10-07T14:12:52.361Z,21.48
2018-10-07T14:15:21.470Z,21.21
2018-10-07T14:17:50.584Z,21.37
2018-10-07T14:20:19.678Z,21.42
2018-10-07T14:22:48.778Z,21.44
2018-10-07T14:25:18.176Z,21.09
2018-10-07T14:27:47.432Z,21.25
2018-10-07T14:30:16.629Z,21.26
2018-10-07T14:32:45.929Z,21.02
2018-10-07T14:35:15.109Z,21.03
2018-10-07T14:37:44.242Z,20.98
2018-10-07T14:40:13.375Z,20.83
2018-10-07T14:42:42.582Z,20.76
2018-10-07T14:45:11.708Z,20.80
2018-10-07T14:47:40.898Z,20.83
2018-10-07T14:50:10.092Z,20.73
2018-10-07T14:52:39.190Z,20.66
2018-10-07T14:55:08.350Z,20.70
2018-10-07T14:57:37.424Z,20.37
2018-10-07T15:00:07.190Z,20.32
2018-10-07T15:02:36.295Z,20.30
2018-10-07T15:05:05.389Z,20.18
2018-10-07T15:07:34.529Z,20.25
2018-10-07T15:10:03.633Z,20.07
2018-10-07T15:12:32.714Z,19.99
2018-10-07T15:15:02.029Z,19.95
2018-10-07T15:17:31.121Z,19.96
2018-10-07T15:20:00.209Z,19.93
2018-10-07T15:22:31.012Z,19.75
2018-10-07T15:25:01.057Z,19.63
2018-10-07T15:27:30.181Z,19.54
2018-10-07T15:29:59.355Z,19.52
2018-10-07T15:32:28.365Z,19.62
2018-10-07T15:34:57.475Z,19.61
2018-10-07T15:37:26.591Z,19.65
2018-10-07T15:39:55.693Z,19.37
2018-10-07T15:42:24.821Z,19.35
2018-10-07T15:44:53.938Z,19.40
2018-10-07T15:47:23.037Z,19.37
2018-10-07T15:49:52.105Z,19.17
2018-10-07T15:52:21.189Z,19.02
2018-10-07T15:54:50.273Z,19.01
2018-10-07T15:57:19.384Z,19.06
2018-10-07T15:59:48.489Z,18.97
2018-10-07T16:02:17.602Z,18.87
2018-10-07T16:04:46.680Z,18.73
2018-10-07T16:07:15.812Z,18.74
2018-10-07T16:09:44.947Z,18.80
2018-10-07T16:12:13.984Z,18.71
2018-10-07T16:14:43.102Z,18.70
2018-10-07T16:17:12.172Z,18.72
2018-10-07T16:19:41.256Z,18.57
2018-10-07T16:22:10.369Z,18.58
2018-10-07T16:24:39.464Z,18.53
2018-10-07T16:27:08.629Z,18.42
2018-10-07T16:29:37.734Z,18.22
2018-10-07T16:32:06.934Z,18.24
2018-10-07T16:34:36.027Z,18.17
2018-10-07T16:37:05.126Z,18.25
2018-10-07T16:39:34.697Z,18.20
2018-10-07T16:42:03.798Z,18.30
2018-10-07T16:44:32.916Z,18.11
2018-10-07T16:47:02.038Z,18.07
2018-10-07T16:49:31.134Z,17.94
2018-10-07T16:52:00.237Z,17.85
2018-10-07T16:54:29.492Z,17.59
2018-10-07T16:56:58.613Z,17.67
2018-10-07T16:59:27.738Z,17.48
2018-10-07T17:01:56.865Z,17.52
2018-10-07T17:04:25.963Z,17.47
2018-10-07T17:09:27.771Z,17.41
2018-10-07T17:11:56.873Z,17.29
2018-10-07T17:14:25.987Z,17.32
2018-10-07T17:16:55.133Z,17.23
2018-10-07T17:19:24.231Z,17.16
2018-10-07T17:21:53.535Z,17.10
2018-10-07T17:24:22.662Z,17.05
2018-10-07T17:26:51.767Z,17.04
2018-10-07T17:29:20.860Z,17.04
2018-10-07T17:31:49.988Z,16.98
2018-10-07T17:34:19.223Z,16.78
2018-10-07T17:36:48.316Z,16.79
2018-10-07T17:39:17.449Z,16.76
2018-10-07T17:41:46.528Z,16.82
2018-10-07T17:44:15.617Z,16.63
2018-10-07T17:46:44.765Z,16.60
2018-10-07T17:49:13.901Z,16.61
2018-10-07T17:51:42.980Z,16.55
2018-10-07T17:54:12.076Z,16.44
2018-10-07T17:56:41.173Z,16.44
2018-10-07T17:59:10.312Z,16.31
2018-10-07T18:01:39.463Z,16.18
2018-10-07T18:04:08.511Z,16.19
2018-10-07T18:06:37.592Z,16.06
2018-10-07T18:09:07.779Z,16.08
2018-10-07T18:11:36.824Z,16.02
2018-10-07T18:14:05.988Z,15.80
2018-10-07T18:16:35.302Z,15.86
2018-10-07T18:19:04.492Z,15.72
2018-10-07T18:21:33.576Z,15.61
2018-10-07T18:24:02.760Z,15.65
2018-10-07T18:26:32.316Z,15.69
2018-10-07T18:29:01.380Z,15.69
2018-10-07T18:31:30.489Z,15.61
2018-10-07T18:33:59.598Z,15.46
2018-10-07T18:36:28.660Z,15.44
2018-10-07T18:38:57.841Z,15.51
2018-10-07T18:41:27.031Z,15.58
2018-10-07T18:43:56.119Z,15.60
2018-10-07T18:46:25.312Z,15.56
2018-10-07T18:48:54.547Z,15.50
2018-10-07T18:51:23.619Z,15.53
2018-10-07T18:53:52.851Z,15.29
2018-10-07T18:56:21.929Z,15.49
2018-10-07T18:58:51.105Z,15.29
2018-10-07T19:01:20.200Z,15.26
2018-10-07T19:03:49.424Z,15.24
2018-10-07T19:06:18.513Z,15.17
2018-10-07T19:08:47.594Z,15.24
2018-10-07T19:11:16.781Z,15.38
2018-10-07T19:13:46.113Z,15.14
2018-10-07T19:16:15.363Z,15.22
2018-10-07T19:18:44.437Z,15.25
2018-10-07T19:21:13.580Z,15.15
2018-10-07T19:23:42.711Z,15.17
2018-10-07T19:26:11.914Z,15.02
2018-10-07T19:28:41.000Z,15.02
2018-10-07T19:31:10.221Z,15.01
2018-10-07T19:33:39.520Z,14.93
2018-10-07T19:36:08.623Z,15.05
2018-10-07T19:38:37.753Z,14.97
2018-10-07T19:41:06.964Z,14.76
2018-10-07T19:43:36.224Z,14.80
2018-10-07T19:46:05.506Z,14.83
2018-10-07T19:48:34.692Z,14.57
2018-10-07T19:51:03.848Z,14.50
2018-10-07T19:53:33.076Z,14.54
2018-10-07T19:56:02.150Z,14.52
2018-10-07T19:58:31.236Z,14.44
2018-10-07T20:01:00.368Z,14.52
2018-10-07T20:03:29.469Z,14.61
2018-10-07T20:05:58.619Z,14.63
2018-10-07T20:08:27.703Z,14.65
2018-10-07T20:10:56.851Z,14.77
2018-10-07T20:13:26.378Z,14.61
2018-10-07T20:15:55.494Z,14.50
2018-10-07T20:18:24.607Z,14.33
2018-10-07T20:20:53.717Z,14.36
2018-10-07T20:23:22.809Z,14.29
2018-10-07T20:25:51.900Z,14.22
2018-10-07T20:28:21.023Z,14.11
2018-10-07T20:30:50.196Z,14.22
2018-10-07T20:33:19.894Z,14.25
2018-10-07T20:35:48.996Z,14.25
2018-10-07T20:38:18.196Z,14.21
2018-10-07T20:40:47.522Z,14.16
2018-10-07T20:43:16.501Z,14.11
2018-10-07T20:45:45.641Z,14.21
2018-10-07T20:48:14.712Z,14.24
2018-10-07T20:50:43.873Z,14.10
2018-10-07T20:53:13.163Z,14.00
2018-10-07T20:55:42.281Z,14.00
2018-10-07T20:58:11.460Z,13.90
2018-10-07T21:00:40.685Z,13.87
2018-10-07T21:03:09.788Z,13.79
2018-10-07T21:05:38.962Z,13.66
2018-10-07T21:08:08.080Z,13.81
2018-10-07T21:10:37.240Z,13.82
2018-10-07T21:13:06.364Z,13.62
2018-10-07T21:15:35.472Z,13.63
2018-10-07T21:18:04.580Z,13.62
2018-10-07T21:20:33.669Z,13.49
2018-10-07T21:23:03.076Z,13.51
2018-10-07T21:25:32.251Z,13.57
2018-10-07T21:28:01.442Z,13.69
2018-10-07T21:30:30.652Z,13.73
2018-10-07T21:32:59.819Z,13.75
2018-10-07T21:35:28.903Z,13.67
2018-10-07T21:37:58.103Z,13.51
2018-10-07T21:40:27.187Z,13.42
2018-10-07T21:42:56.281Z,13.38
2018-10-07T21:45:25.413Z,13.25
2018-10-07T21:47:54.485Z,13.29
2018-10-07T21:50:23.593Z,13.28
2018-10-07T21:52:52.733Z,13.32
2018-10-07T21:55:21.893Z,13.35
2018-10-07T21:57:51.075Z,13.32
2018-10-07T22:00:20.173Z,13.42
2018-10-07T22:02:49.269Z,13.46
2018-10-07T22:05:18.401Z,13.52
2018-10-07T22:07:47.497Z,13.49
2018-10-07T22:10:16.561Z,13.32
2018-10-07T22:12:45.667Z,13.16
2018-10-07T22:15:14.860Z,13.08
2018-10-07T22:17:44.049Z,13.03
2018-10-07T22:20:13.145Z,13.02
2018-10-07T22:22:42.365Z,13.21
2018-10-07T22:25:11.444Z,13.22
2018-10-07T22:27:40.540Z,13.06
2018-10-07T22:30:09.676Z,13.06
2018-10-07T22:32:38.777Z,13.04
2018-10-07T22:35:07.864Z,13.18
2018-10-07T22:37:36.999Z,13.21
2018-10-07T22:40:06.111Z,13.28
2018-10-07T22:42:35.207Z,13.30
2018-10-07T22:45:04.524Z,13.40
2018-10-07T22:47:33.626Z,13.35
2018-10-07T22:50:02.814Z,13.13
2018-10-07T22:52:32.078Z,13.04
2018-10-07T22:55:01.260Z,12.88
2018-10-07T22:57:30.367Z,12.85
2018-10-07T22:59:59.479Z,12.86
2018-10-07T23:02:28.598Z,12.99
2018-10-07T23:04:57.776Z,12.74
2018-10-07T23:07:27.015Z,12.66
2018-10-07T23:09:56.093Z,12.57
2018-10-07T23:12:25.197Z,12.85
2018-10-07T23:14:54.433Z,12.88
2018-10-07T23:17:23.548Z,12.96
2018-10-07T23:19:52.649Z,13.13
2018-10-07T23:22:21.771Z,13.18
2018-10-07T23:24:50.877Z,13.22
2018-10-07T23:27:19.969Z,13.24
2018-10-07T23:29:49.076Z,13.26
2018-10-07T23:32:18.221Z,13.12
2018-10-07T23:34:47.441Z,13.07
2018-10-07T23:37:16.567Z,12.91
2018-10-07T23:39:45.715Z,13.09
2018-10-07T23:42:14.816Z,13.06
2018-10-07T23:44:43.928Z,13.12
2018-10-07T23:47:13.033Z,12.99
2018-10-07T23:49:42.136Z,12.79
2018-10-07T23:52:11.478Z,12.93
2018-10-07T23:54:40.608Z,13.06
2018-10-07T23:57:10.204Z,13.17
2018-10-07T23:59:39.304Z,13.21
